Date,TemperatureHighF,TemperatureAvgF,TemperatureLowF,DewpointHighF,DewpointAvgF,DewpointLowF,HumidityHigh,HumidityAvg,HumidityLow,PressureMaxIn,PressureMinIn,WindSpeedMaxMPH,WindSpeedAvgMPH,GustSpeedMaxMPH,PrecipitationSumIn
2013-1-1,32,27,15,27,18,6,86,71,54,29.91,29.64,0,0,0,0.00
2013-1-2,22,14,7,12,6,-1,80,69,58,30.09,29.86,0,0,0,0.05
2013-1-3,23,13,7,10,5,-1,77,69,57,30.15,30.00,0,0,0,0.03
2013-1-4,34,22,10,27,17,5,87,79,74,30.03,29.72,0,0,0,0.02
2013-1-5,34,30,20,28,21,14,79,69,55,30.29,29.77,0,0,0,0.02
2013-1-6,32,25,19,27,20,13,88,83,76,30.29,29.91,0,0,0,0.00
2013-1-7,28,24,20,25,19,15,91,83,74,30.37,29.92,0,0,0,0.00
2013-1-8,39,30,17,30,24,14,91,80,65,30.31,30.14,0,0,0,0.05
2013-1-9,40,30,21,36,27,18,90,87,81,30.36,29.82,0,0,0,0.02
2013-1-10,42,38,31,33,29,24,85,69,57,30.48,29.85,0,0,0,0.01
2013-1-11,36,31,25,31,25,21,89,78,66,30.56,30.32,0,0,0,0.00
2013-1-12,40,37,34,38,35,31,94,93,89,30.33,30.19,0,0,0,0.04
2013-1-13,45,40,37,44,39,36,95,95,94,30.23,30.03,0,0,0,0.02
2013-1-14,51,45,38,50,41,28,95,88,68,30.29,29.92,0,0,0,0.03
2013-1-15,39,35,31,29,27,25,86,74,66,30.39,30.29,0,0,0,0.01
2013-1-16,32,32,31,30,28,24,94,87,74,30.35,29.87,0,0,0,0.01
2013-5-18,64,62,2,45,44,-8,63,50,50,30.37,30.13,0,0,0,0.00
2013-5-27,61,55,50,43,42,41,74,63,51,30.29,30.23,0,0,0,0.01
2013-5-28,73,57,42,47,43,38,89,63,29,30.38,30.29,0,0,0,0.01
2013-5-29,56,54,50,54,51,45,92,90,78,30.34,30.08,0,0,0,0.14
2013-5-30,83,67,55,70,59,53,93,78,52,30.13,30.05,0,0,0,0.01
2013-5-31,88,72,58,67,61,55,90,71,45,30.15,29.98,0,0,0,0.00
2013-6-1,87,73,62,68,62,58,88,70,49,30.02,29.91,0,0,0,0.00
2013-6-2,79,70,64,65,61,-100,88,76,60,29.91,29.78,0,0,0,0.27
2013-6-3,71,65,60,65,60,56,91,86,72,29.91,29.79,0,0,0,0.29
2013-6-4,64,60,53,57,48,44,90,67,48,30.14,29.84,0,0,0,0.01
2013-6-5,74,60,51,51,46,42,83,62,34,30.27,30.14,0,0,0,0.00
2013-6-6,73,61,53,54,50,44,86,69,37,30.32,30.25,0,0,0,0.00
2013-6-7,60,57,54,53,51,47,92,81,66,30.26,30.06,0,0,0,0.38
2013-6-8,68,59,54,61,55,52,93,87,76,30.07,29.73,0,0,0,1.16
2013-6-9,74,64,58,61,57,55,91,80,62,30.24,30.07,1,0,5,0.01
2013-6-10,67,61,55,58,54,52,90,80,63,30.32,30.15,0,0,0,0.00
2013-6-11,59,56,55,55,53,52,92,91,87,30.15,29.64,0,0,0,0.67
2013-6-12,55,55,55,53,53,53,93,93,92,29.63,29.61,0,0,0,0.00
2013-6-13,69,67,66,55,52,49,64,59,52,29.88,29.85,0,0,0,0.03
2013-6-17,81,72,63,65,62,59,88,72,50,29.96,29.84,3,0,14,0.43
2013-6-18,65,62,58,59,56,52,91,83,70,30.07,29.93,0,0,0,0.18
2013-6-19,74,63,54,56,52,47,90,69,39,30.22,30.02,0,0,7,0.00
2013-6-20,79,62,51,53,50,47,89,70,38,30.35,30.22,0,0,0,0.00
2013-6-22,82,73,67,65,63,58,85,71,46,30.28,30.19,0,0,0,0.02
2013-6-23,74,68,64,66,63,60,91,85,70,30.24,30.04,0,0,0,0.42
2013-6-24,90,74,65,74,66,62,92,78,50,30.05,29.88,0,0,0,0.15
2013-6-25,89,75,68,70,66,64,88,75,49,29.93,29.77,0,0,0,0.09
2013-6-26,76,67,60,70,64,57,91,88,81,29.95,29.76,0,0,0,0.60
2013-6-27,67,60,56,62,57,54,92,90,83,29.96,29.90,0,0,0,0.48
2013-6-28,67,61,57,65,59,55,93,93,91,29.91,29.62,0,0,0,0.54
2013-6-29,67,65,63,65,63,61,93,92,90,29.77,29.62,0,0,0,0.03
2013-6-30,80,69,63,70,64,61,93,85,70,30.00,29.76,0,0,0,0.03
2013-7-1,75,69,64,70,65,61,91,89,82,30.16,29.99,0,0,0,0.44
2013-7-2,68,63,60,65,61,58,93,93,91,30.28,30.15,0,0,0,0.39
2013-7-3,78,66,59,69,62,57,93,88,73,30.27,30.16,0,0,0,0.13
2013-7-4,89,75,64,74,68,61,92,79,55,30.22,30.10,0,0,0,0.00
2013-7-5,92,77,68,72,69,65,91,77,52,30.17,30.04,0,0,0,0.03
2013-7-6,89,78,71,73,70,65,90,79,58,30.06,29.95,0,0,0,0.03
2013-7-7,88,78,68,71,67,62,83,68,51,30.01,29.92,0,0,0,0.00
2013-7-8,76,71,68,68,64,-100,90,82,68,30.11,29.92,0,0,2,0.61
2013-7-9,69,66,63,66,62,60,91,89,85,30.16,30.10,0,0,0,0.11
2013-7-10,68,64,62,66,59,-100,92,88,83,30.13,29.82,1,0,6,0.04
2013-7-11,78,72,67,71,68,65,92,87,72,30.00,29.78,0,0,0,0.04
2013-7-12,81,71,64,68,60,57,90,70,50,30.25,29.99,5,0,8,0.00
2013-7-13,83,70,60,66,61,56,90,73,52,30.36,30.25,2,0,7,0.00
2013-7-14,90,75,66,70,65,62,90,74,50,30.32,30.21,2,0,7,0.00
2013-7-15,93,77,66,69,66,62,89,71,43,30.21,30.09,4,0,6,0.00
2013-7-16,88,78,70,69,67,64,86,70,50,30.18,30.11,4,0,6,0.00
2013-7-17,84,78,72,70,67,65,87,71,60,30.20,29.96,3,1,9,0.36
2013-7-18,87,76,70,71,68,63,91,78,53,30.03,29.95,0,0,0,0.39
2013-7-19,90,78,71,74,70,67,90,77,57,29.98,29.65,2,0,7,0.00
2013-7-20,91,80,75,72,67,-100,83,67,50,29.79,29.62,0,0,3,0.00
2013-7-21,79,71,65,63,60,55,83,68,46,30.00,29.79,3,0,9,0.00
2013-7-22,74,68,63,65,60,58,90,78,58,30.02,29.89,1,0,6,0.00
2013-7-23,68,66,64,66,63,59,92,90,83,29.89,29.51,0,0,0,0.69
2013-7-24,83,70,62,73,64,53,92,82,64,29.94,29.54,4,0,9,0.01
2013-7-25,73,64,57,61,55,50,89,75,60,30.09,29.94,4,0,7,0.10
2013-7-26,68,65,62,64,62,59,92,89,83,30.06,29.87,7,0,10,0.15
2013-7-27,83,72,63,67,63,60,91,75,53,30.01,29.89,2,0,6,0.01
2013-7-28,71,67,63,66,63,59,90,87,80,30.03,29.98,2,0,6,0.01
2013-7-29,76,68,63,68,63,60,91,86,71,30.05,29.98,0,0,0,0.26
2013-7-30,80,68,62,65,62,59,92,81,59,30.06,29.98,0,0,0,0.27
2013-7-31,82,69,59,62,59,55,90,73,47,30.13,30.03,3,0,10,0.00
2013-8-1,80,70,61,68,62,57,90,78,57,30.05,29.88,1,0,5,0.00
2013-8-2,78,68,65,68,64,61,91,85,69,29.88,29.74,1,0,6,0.61
2013-8-3,78,68,62,65,62,59,91,80,61,29.82,29.71,0,0,6,0.03
2013-8-4,80,66,59,63,59,55,90,78,52,29.83,29.73,5,0,10,0.12
2013-8-5,71,63,56,57,53,49,88,70,50,30.05,29.83,9,2,14,0.02
2013-8-6,79,64,53,58,53,49,87,68,43,30.15,30.05,3,0,9,0.00
2013-8-7,78,66,55,64,58,51,90,77,51,30.20,30.12,2,0,10,0.00
2013-8-8,74,67,63,68,62,59,91,86,80,30.11,29.98,3,0,12,0.38
2013-8-9,70,68,67,68,66,64,92,91,89,29.99,29.70,3,0,13,0.76
2013-8-10,78,70,62,68,60,49,92,72,40,29.95,29.70,7,1,9,0.01
2013-8-11,79,66,55,58,55,51,88,69,46,30.03,29.95,5,0,9,0.01
2013-8-12,81,67,59,63,58,55,89,75,51,29.98,29.88,3,0,10,0.00
2013-8-13,72,65,60,65,58,-100,89,81,72,29.89,29.67,3,0,8,0.00
2013-8-14,78,65,63,66,54,-100,91,75,48,29.84,29.58,7,1,13,0.00
2013-8-21,84,73,63,66,63,59,88,73,51,30.09,29.93,0,0,0,0.00
2013-8-22,85,74,64,68,64,60,88,74,54,29.94,29.70,1,0,5,0.00
2013-8-23,76,70,63,65,57,52,84,65,44,30.09,29.71,3,0,8,0.00
2013-8-24,77,65,54,55,52,48,84,64,38,30.27,30.09,0,0,0,0.00
2013-8-25,80,65,55,59,52,-100,88,69,44,30.32,30.12,0,0,0,0.00
2013-8-26,77,68,63,66,62,57,89,80,67,30.12,29.83,1,0,5,0.07
2013-8-27,83,69,63,68,63,59,90,81,59,29.85,29.80,1,0,8,0.01
2013-9-5,68,62,55,61,54,46,91,78,58,30.09,29.80,0,0,7,0.08
2013-9-6,70,58,48,54,48,42,87,70,43,30.19,29.99,0,0,6,0.01
2013-9-7,73,63,54,60,55,50,88,75,59,29.99,29.76,1,0,3,0.00
2013-9-8,64,60,53,58,49,-100,90,71,52,30.03,29.68,1,0,8,0.17
2013-9-9,67,58,47,54,48,42,84,72,53,30.18,30.03,0,0,6,0.01
2013-9-10,65,62,57,60,57,52,90,84,79,30.09,30.00,0,0,0,0.01
2013-9-11,82,71,63,71,65,60,91,83,69,30.02,29.86,0,0,0,0.82
2013-9-12,72,68,66,68,65,63,92,90,86,29.94,29.61,0,0,0,2.64
2013-9-13,69,65,59,67,63,57,92,92,91,29.67,29.53,0,0,0,0.95
2013-9-14,68,62,57,59,56,51,92,83,71,29.98,29.66,0,0,0,0.01
2013-9-15,69,56,50,57,48,-100,91,80,61,30.11,29.97,0,0,0,0.00
2013-9-16,64,57,48,57,52,40,90,83,69,30.22,29.94,0,0,0,0.02
2013-9-17,64,52,42,51,44,38,86,73,53,30.38,30.23,0,0,5,0.01
2013-10-2,78,64,52,63,56,49,91,76,56,29.86,29.73,0,0,0,0.00
2013-10-3,75,62,52,54,51,48,88,70,44,30.04,29.88,0,0,0,0.00
2013-10-4,69,60,50,57,52,46,89,76,60,30.09,30.02,0,0,0,0.00
2013-10-5,62,57,52,53,49,47,85,74,63,30.14,30.06,0,0,0,0.00
2013-10-6,56,53,49,50,46,41,91,77,62,30.28,30.13,0,0,0,0.02
2013-10-7,67,59,51,65,57,48,93,92,91,30.21,29.79,0,0,0,0.50
2013-10-8,63,56,46,61,48,41,92,75,54,30.37,29.82,0,0,0,0.06
2013-10-9,63,50,40,48,42,37,91,77,54,30.48,30.37,0,0,0,0.00
2013-10-10,62,52,43,51,46,40,91,79,61,30.37,30.18,0,0,0,0.00
2013-10-14,61,51,42,50,45,39,92,81,62,30.37,30.23,0,0,0,0.00
2013-10-15,66,58,54,56,52,50,90,82,67,30.26,30.20,0,0,0,0.00
2013-10-16,60,57,55,55,53,52,90,86,79,30.21,29.89,0,0,0,0.00
2013-10-17,67,59,55,59,55,51,91,85,73,29.88,29.72,0,0,0,0.00
2013-10-18,65,59,55,58,52,47,92,81,59,29.82,29.56,0,0,0,0.34
2013-10-19,63,54,45,50,47,41,89,76,59,29.92,29.74,0,0,0,0.03
2013-10-20,60,55,54,53,45,-100,90,76,50,29.75,29.65,0,0,0,0.01
2013-11-22,38,38,38,36,36,35,91,91,90,29.97,29.75,0,0,0,0.01
2013-11-23,41,36,29,39,25,-100,92,68,50,29.80,29.69,0,0,0,0.01
2013-11-24,28,24,21,25,14,9,90,65,55,30.04,29.73,0,0,0,0.01
2013-11-25,33,24,19,21,11,7,64,57,45,30.35,30.04,0,0,0,0.00